createdAt,value
2023-01-13T00:01:57.172Z,99969.56
2023-01-13T00:04:27.345Z,99975.69
2023-01-13T00:06:57.760Z,99983.38
2023-01-13T00:09:28.030Z,99969.41
2023-01-13T00:11:58.542Z,99982.09
2023-01-13T00:14:30.863Z,99975.53
2023-01-13T00:17:01.357Z,99980.69
2023-01-13T00:19:31.716Z,99997.06
2023-01-13T00:22:02.300Z,99990.22
2023-01-13T00:24:33.171Z,99997.91
2023-01-13T00:27:03.708Z,99998.34
2023-01-13T00:29:34.023Z,99997.94
2023-01-13T00:32:04.650Z,100001.41
2023-01-13T00:34:34.964Z,100001.59
2023-01-13T00:37:05.406Z,99985.72
2023-01-13T00:39:35.419Z,99990.66
2023-01-13T00:42:24.632Z,99994.91
2023-01-13T00:44:54.797Z,99980.75
2023-01-13T00:47:25.066Z,99993.44
2023-01-13T00:49:55.614Z,99989.53
2023-01-13T00:52:25.610Z,99988.59
2023-01-13T00:54:56.219Z,99991.91
2023-01-13T00:57:26.289Z,99996.25
2023-01-13T00:59:57.790Z,100000.59
2023-01-13T01:02:28.555Z,100000.88
2023-01-13T01:05:01.142Z,100003.50
2023-01-13T01:07:31.246Z,99998.94
2023-01-13T01:10:01.719Z,100011.47
2023-01-13T01:12:31.083Z,100006.75
2023-01-13T01:15:01.003Z,100008.00
2023-01-13T01:17:31.678Z,100009.75
2023-01-13T01:20:01.769Z,99999.88
2023-01-13T01:22:32.555Z,100000.84
2023-01-13T01:25:02.981Z,100006.84
2023-01-13T01:27:33.563Z,100007.94
2023-01-13T01:30:03.845Z,99990.22
2023-01-13T01:32:36.278Z,99995.94
2023-01-13T01:35:06.748Z,99998.59
2023-01-13T01:37:37.466Z,100004.91
2023-01-13T01:40:08.124Z,100008.97
2023-01-13T01:42:57.033Z,100005.19
2023-01-13T01:45:29.520Z,100002.09
2023-01-13T01:48:05.357Z,99998.44
2023-01-13T01:50:36.221Z,100001.53
2023-01-13T01:53:16.649Z,100011.78
2023-01-13T01:55:47.274Z,100006.66
2023-01-13T01:58:22.991Z,100007.97
2023-01-13T02:00:54.195Z,100018.38
2023-01-13T02:03:25.279Z,100010.88
2023-01-13T02:05:55.665Z,100019.84
2023-01-13T02:08:26.579Z,100021.91
2023-01-13T02:10:56.706Z,100016.13
2023-01-13T02:13:27.252Z,100015.19
2023-01-13T02:16:23.044Z,100027.47
2023-01-13T02:18:56.162Z,100036.50
2023-01-13T02:21:50.167Z,100037.25
2023-01-13T02:24:55.756Z,100031.13
2023-01-13T02:27:44.846Z,100034.81
2023-01-13T02:30:49.173Z,100044.78
2023-01-13T02:33:37.117Z,100045.59
2023-01-13T02:36:33.268Z,100058.44
2023-01-13T02:39:26.595Z,100058.41
2023-01-13T02:42:26.135Z,100061.28
2023-01-13T02:45:28.072Z,100057.38
2023-01-13T02:48:01.192Z,100051.03
2023-01-13T02:50:45.914Z,100049.97
2023-01-13T02:53:35.712Z,100041.00
2023-01-13T02:56:08.271Z,100034.41
2023-01-13T02:58:42.443Z,100042.00
2023-01-13T03:01:12.772Z,100037.00
2023-01-13T03:03:45.066Z,100026.97
2023-01-13T03:06:31.075Z,100024.38
2023-01-13T03:09:15.758Z,100035.06
2023-01-13T03:12:22.687Z,100031.09
2023-01-13T03:15:17.084Z,100022.78
2023-01-13T03:18:10.391Z,100013.03
2023-01-13T03:20:49.441Z,100032.63
2023-01-13T03:23:34.940Z,100021.16
2023-01-13T03:26:19.829Z,100023.16
2023-01-13T03:29:00.297Z,100022.31
2023-01-13T03:31:36.291Z,100023.91
2023-01-13T03:34:13.126Z,100008.50
2023-01-13T03:36:47.635Z,100009.72
2023-01-13T03:39:23.830Z,100008.50
2023-01-13T03:42:01.170Z,100011.09
2023-01-13T03:44:43.779Z,100005.16
2023-01-13T03:47:56.995Z,99998.41
2023-01-13T03:50:34.704Z,99986.09
2023-01-13T03:53:12.274Z,99994.81
2023-01-13T03:55:49.063Z,99990.75
2023-01-13T03:58:32.001Z,99988.03
2023-01-13T04:01:37.603Z,99992.19
2023-01-13T04:04:24.429Z,99984.69
2023-01-13T04:06:59.605Z,99979.88
2023-01-13T04:09:42.723Z,99978.16
2023-01-13T04:12:56.069Z,99977.69
2023-01-13T04:15:29.592Z,99990.56
2023-01-13T04:18:27.288Z,99974.47
2023-01-13T04:21:00.317Z,99973.22
2023-01-13T04:23:30.936Z,99979.28
2023-01-13T04:26:01.700Z,99968.34
2023-01-13T04:28:31.936Z,99965.16
2023-01-13T04:31:02.936Z,99963.78
2023-01-13T04:33:33.035Z,99970.34
2023-01-13T04:36:03.649Z,99964.56
2023-01-13T04:38:33.733Z,99959.13
2023-01-13T04:41:03.612Z,99953.69
2023-01-13T04:43:34.293Z,99957.34
2023-01-13T04:46:04.539Z,99938.50
2023-01-13T04:48:35.464Z,99940.66
2023-01-13T04:51:05.819Z,99940.88
2023-01-13T04:53:36.322Z,99937.00
2023-01-13T04:56:06.817Z,99938.63
2023-01-13T04:58:37.304Z,99936.44
2023-01-13T05:01:07.570Z,99936.28
2023-01-13T05:03:38.152Z,99931.53
2023-01-13T05:06:08.540Z,99939.75
2023-01-13T05:08:39.064Z,99947.94
2023-01-13T05:11:28.999Z,99953.19
2023-01-13T05:14:17.809Z,99948.91
2023-01-13T05:17:03.733Z,99941.13
2023-01-13T05:19:36.800Z,99933.84
2023-01-13T05:22:25.508Z,99947.34
2023-01-13T05:25:14.337Z,99944.41
2023-01-13T05:27:44.387Z,99933.59
2023-01-13T05:30:15.345Z,99936.28
2023-01-13T05:32:46.362Z,99932.97
2023-01-13T05:35:18.076Z,99938.13
2023-01-13T05:37:48.889Z,99929.06
2023-01-13T05:40:39.283Z,99929.59
2023-01-13T05:43:22.290Z,99923.41
2023-01-13T05:46:03.533Z,99919.81
2023-01-13T05:48:39.503Z,99919.28
2023-01-13T05:51:12.999Z,99914.88
2023-01-13T05:53:43.432Z,99910.13
2023-01-13T05:56:14.163Z,99907.56
2023-01-13T05:58:44.179Z,99910.84
2023-01-13T06:01:14.931Z,99912.91
2023-01-13T06:03:45.859Z,99911.41
2023-01-13T06:06:15.994Z,99905.81
2023-01-13T06:08:46.440Z,99906.47
2023-01-13T06:11:16.628Z,99900.28
2023-01-13T06:13:47.195Z,99912.41
2023-01-13T06:16:17.388Z,99916.56
2023-01-13T06:18:48.000Z,99909.88
2023-01-13T06:21:18.107Z,99896.53
2023-01-13T06:23:48.679Z,99893.41
2023-01-13T06:26:22.050Z,99882.78
2023-01-13T06:28:52.618Z,99890.03
2023-01-13T06:31:23.096Z,99896.88
2023-01-13T06:33:58.714Z,99903.22
2023-01-13T06:36:36.482Z,99898.72
2023-01-13T06:39:07.891Z,99908.13
2023-01-13T06:41:56.632Z,99903.78
2023-01-13T06:44:27.153Z,99907.34
2023-01-13T06:46:57.461Z,99907.34
2023-01-13T06:49:28.068Z,99906.59
2023-01-13T06:51:58.141Z,99902.22
2023-01-13T06:54:28.917Z,99899.06
2023-01-13T06:56:59.072Z,99906.13
2023-01-13T06:59:29.820Z,99913.97
2023-01-13T07:02:00.046Z,99915.91
2023-01-13T07:04:30.698Z,99920.88
2023-01-13T07:07:00.904Z,99919.03
2023-01-13T07:09:31.555Z,99927.00
2023-01-13T07:12:01.949Z,99913.03
2023-01-13T07:14:50.839Z,99907.91
2023-01-13T07:17:26.217Z,99908.91
2023-01-13T07:19:56.626Z,99909.63
2023-01-13T07:22:26.526Z,99905.81
2023-01-13T07:24:57.843Z,99901.28
2023-01-13T07:27:27.980Z,99904.47
2023-01-13T07:29:58.401Z,99904.72
2023-01-13T07:32:28.529Z,99897.47
2023-01-13T07:35:05.668Z,99902.56
2023-01-13T07:37:37.680Z,99897.16
2023-01-13T07:40:09.127Z,99889.53
2023-01-13T07:42:58.333Z,99891.72
2023-01-13T07:45:28.959Z,99894.09
2023-01-13T07:47:59.148Z,99894.38
2023-01-13T07:50:29.801Z,99899.31
2023-01-13T07:53:00.726Z,99907.72
2023-01-13T07:55:31.476Z,99898.53
2023-01-13T07:58:01.688Z,99902.91
2023-01-13T08:00:32.264Z,99908.31
2023-01-13T08:03:02.651Z,99910.97
2023-01-13T08:05:33.421Z,99910.38
2023-01-13T08:08:04.181Z,99902.75
2023-01-13T08:10:34.770Z,99903.09
2023-01-13T08:13:22.143Z,99896.50
2023-01-13T08:15:55.608Z,99897.41
2023-01-13T08:18:25.756Z,99886.19
2023-01-13T08:20:56.567Z,99882.44
2023-01-13T08:23:26.653Z,99880.59
2023-01-13T08:26:00.730Z,99874.66
2023-01-13T08:28:31.187Z,99892.84
2023-01-13T08:31:03.421Z,99894.50
2023-01-13T08:33:34.546Z,99891.75
2023-01-13T08:36:07.839Z,99898.31
2023-01-13T08:38:39.660Z,99904.28
2023-01-13T08:41:12.391Z,99896.47
2023-01-13T08:43:42.561Z,99901.56
2023-01-13T08:46:13.541Z,99906.09
2023-01-13T08:48:43.795Z,99904.63
2023-01-13T08:51:14.700Z,99897.91
2023-01-13T08:53:44.756Z,99899.00
2023-01-13T08:56:16.132Z,99901.53
2023-01-13T08:58:46.708Z,99892.28
2023-01-13T09:01:23.953Z,99895.72
2023-01-13T09:03:55.362Z,99900.63
2023-01-13T09:06:25.687Z,99907.69
2023-01-13T09:08:56.557Z,99899.88
2023-01-13T09:11:52.686Z,99906.75
2023-01-13T09:14:26.357Z,99908.34
2023-01-13T09:16:56.672Z,99908.00
2023-01-13T09:19:28.330Z,99914.50
2023-01-13T09:21:59.194Z,99915.19
2023-01-13T09:24:30.405Z,99926.56
2023-01-13T09:27:00.502Z,99927.16
2023-01-13T09:29:31.143Z,99935.09
2023-01-13T09:32:01.422Z,99942.38
2023-01-13T09:34:50.361Z,99960.75
2023-01-13T09:37:20.625Z,99951.44
2023-01-13T09:39:51.139Z,99961.69
2023-01-13T09:42:55.683Z,99956.19
2023-01-13T09:45:44.461Z,99956.06
2023-01-13T09:48:52.867Z,99976.97
2023-01-13T09:51:35.934Z,99969.63
2023-01-13T09:54:17.715Z,99963.06
2023-01-13T09:56:48.417Z,99960.78
2023-01-13T09:59:18.552Z,99968.72
2023-01-13T10:02:14.827Z,99977.81
2023-01-13T10:04:44.875Z,99971.31
2023-01-13T10:07:16.570Z,99986.59
2023-01-13T10:09:55.110Z,99982.00
2023-01-13T10:12:46.492Z,99986.69
2023-01-13T10:15:24.480Z,99990.75
2023-01-13T10:18:23.749Z,99991.00
2023-01-13T10:21:32.148Z,100004.81
2023-01-13T10:24:20.687Z,100000.34
2023-01-13T10:26:56.562Z,100009.19
2023-01-13T10:29:29.715Z,100007.94
2023-01-13T10:32:02.071Z,100013.72
2023-01-13T10:34:33.202Z,100018.63
2023-01-13T10:37:09.517Z,100021.78
2023-01-13T10:39:46.614Z,100026.53
2023-01-13T10:42:24.085Z,100026.09
2023-01-13T10:44:58.075Z,100033.47
2023-01-13T10:47:33.859Z,100035.25
2023-01-13T10:50:13.028Z,100038.53
2023-01-13T10:53:01.090Z,100043.84
2023-01-13T10:55:39.706Z,100047.53
2023-01-13T10:58:22.738Z,100051.75
2023-01-13T11:01:02.417Z,100045.84
2023-01-13T11:03:44.656Z,100034.00
2023-01-13T11:06:26.793Z,100048.63
2023-01-13T11:09:04.245Z,100038.28
2023-01-13T11:11:42.330Z,100048.19
2023-01-13T11:14:42.954Z,100055.81
2023-01-13T11:17:29.819Z,100054.16
2023-01-13T11:20:13.360Z,100057.13
2023-01-13T11:22:50.629Z,100056.84
2023-01-13T11:25:35.066Z,100065.34
2023-01-13T11:28:35.177Z,100066.78
2023-01-13T11:31:10.356Z,100055.81
2023-01-13T11:33:53.813Z,100068.72
2023-01-13T11:36:33.607Z,100071.31
2023-01-13T11:39:49.129Z,100069.69
2023-01-13T11:42:36.577Z,100065.63
2023-01-13T11:45:17.832Z,100073.38
2023-01-13T11:47:51.595Z,100067.44
2023-01-13T11:50:36.197Z,100061.50
2023-01-13T11:53:17.153Z,100061.34
2023-01-13T11:56:08.876Z,100054.97
2023-01-13T11:59:29.156Z,100041.38
2023-01-13T12:02:24.107Z,100047.44
2023-01-13T12:04:57.276Z,100039.75
2023-01-13T12:07:45.987Z,100046.97
2023-01-13T12:10:53.550Z,100047.91
2023-01-13T12:13:44.651Z,100049.13
2023-01-13T12:16:27.059Z,100046.13
2023-01-13T12:19:26.891Z,100046.03
2023-01-13T12:22:22.287Z,100059.53
2023-01-13T12:25:14.376Z,100060.31
2023-01-13T12:28:15.745Z,100058.97
2023-01-13T12:30:56.549Z,100057.69
2023-01-13T12:33:51.535Z,100055.34
2023-01-13T12:37:06.216Z,100056.13
2023-01-13T12:39:45.557Z,100058.38
2023-01-13T12:42:53.005Z,100050.44
2023-01-13T12:45:27.139Z,100038.56
2023-01-13T12:47:58.166Z,100043.03
2023-01-13T12:50:28.626Z,100031.50
2023-01-13T12:52:59.692Z,100021.22
2023-01-13T12:55:37.588Z,100020.22
2023-01-13T12:58:07.664Z,100017.97
2023-01-13T13:01:02.150Z,100024.00
2023-01-13T13:03:37.283Z,100022.09
2023-01-13T13:06:29.908Z,100031.78
2023-01-13T13:09:30.616Z,100031.69
2023-01-13T13:12:51.118Z,100038.34
2023-01-13T13:15:29.905Z,100040.34
2023-01-13T13:18:35.503Z,100038.31
2023-01-13T13:21:10.283Z,100043.25
2023-01-13T13:23:51.395Z,100040.13
2023-01-13T13:26:25.936Z,100034.28
2023-01-13T13:28:56.416Z,100027.78
2023-01-13T13:31:34.919Z,100033.38
2023-01-13T13:34:23.786Z,100027.41
2023-01-13T13:37:08.977Z,100041.38
2023-01-13T13:40:02.616Z,100043.56
2023-01-13T13:43:11.507Z,100036.91
2023-01-13T13:46:10.841Z,100042.19
2023-01-13T13:48:41.120Z,100032.53
2023-01-13T13:51:32.492Z,100040.69
2023-01-13T13:54:03.890Z,100050.97
2023-01-13T13:56:41.991Z,100046.16
2023-01-13T13:59:28.410Z,100045.56
2023-01-13T14:02:04.599Z,100038.97
2023-01-13T14:04:36.938Z,100041.19
2023-01-13T14:07:21.818Z,100033.34
2023-01-13T14:09:57.737Z,100038.19
2023-01-13T14:12:29.175Z,100034.84
2023-01-13T22:48:38.276Z,99886.38
2023-01-13T22:51:14.000Z,99885.47
2023-01-13T22:53:44.651Z,99889.19
2023-01-13T22:56:22.088Z,99890.50
2023-01-13T22:58:57.254Z,99894.69
2023-01-13T23:01:31.237Z,99890.75
2023-01-13T23:04:02.992Z,99892.38
2023-01-13T23:06:35.459Z,99892.28
2023-01-13T23:09:05.854Z,99901.91
2023-01-13T23:11:36.929Z,99906.09
2023-01-13T23:14:09.612Z,99903.53
2023-01-13T23:16:42.206Z,99900.63
2023-01-13T23:19:13.224Z,99904.59
2023-01-13T23:21:44.234Z,99910.81
2023-01-13T23:24:14.722Z,99915.84
2023-01-13T23:26:45.415Z,99931.69
2023-01-13T23:29:16.105Z,99924.09
2023-01-13T23:31:48.363Z,99936.44
2023-01-13T23:34:18.796Z,99942.91
2023-01-13T23:36:49.765Z,99942.66
2023-01-13T23:39:22.771Z,99949.28
2023-01-13T23:41:53.819Z,99942.00
2023-01-13T23:44:24.425Z,99946.69
2023-01-13T23:46:55.049Z,99956.63
2023-01-13T23:49:31.260Z,99949.22
2023-01-13T23:52:01.459Z,99937.53
2023-01-13T23:54:31.452Z,99938.34
2023-01-13T23:57:02.418Z,99938.38
2023-01-13T23:59:32.660Z,99938.56
